Time;durP1;ratioP1;P1;durP2;ratioP2;P2;SDS_P1;SDS_P2;PMS_P1;PMS_P2;Temp;Humidity;BMP_temperature;BMP_pressure;BME280_temperature;BME280_humidity;BME280_pressure;Samples;Min_cycle;Max_cycle;Signal;HPM_P1;HPM_P2
2022/09/08 00:00:26;;;;;;;;;3.00;1.00;;;;;19.50;59.25;100379.59;5073165;27;45337;-49
2022/09/08 00:02:53;;;;;;;;;4.00;1.00;;;;;19.48;59.63;100376.22;5059668;28;45857;-48
2022/09/08 00:05:23;;;;;;;;;3.00;1.25;;;;;19.48;59.84;100369.09;5053112;27;45388;-50
2022/09/08 00:07:49;;;;;;;;;2.00;2.00;;;;;19.50;59.45;100368.97;5045578;28;45251;-53
2022/09/08 00:10:15;;;;;;;;;3.00;1.00;;;;;19.48;59.91;100374.41;5079016;27;45221;-52
2022/09/08 00:12:41;;;;;;;;;1.75;1.00;;;;;19.47;60.20;100375.34;5062224;28;46857;-53
2022/09/08 00:15:08;;;;;;;;;1.00;1.00;;;;;19.45;59.75;100368.44;5070802;27;45878;-52
2022/09/08 00:17:33;;;;;;;;;2.25;2.00;;;;;19.45;59.48;100371.09;5066918;27;45335;-52
2022/09/08 00:19:59;;;;;;;;;4.50;1.00;;;;;19.48;59.69;100373.56;5060809;28;45549;-52
2022/09/08 00:22:24;;;;;;;;;1.00;1.00;;;;;19.49;59.47;100373.41;5073730;28;45398;-50
2022/09/08 00:24:49;;;;;;;;;2.25;0.75;;;;;19.54;59.54;100375.75;5057675;27;45342;-52
2022/09/08 00:27:15;;;;;;;;;7.50;3.25;;;;;19.53;59.28;100387.34;5063475;27;47142;-50
2022/09/08 00:29:40;;;;;;;;;3.00;0.00;;;;;19.52;59.53;100386.47;5071249;27;64251;-51
2022/09/08 00:32:05;;;;;;;;;2.00;2.00;;;;;19.47;59.53;100382.47;5078512;27;72860;-50
2022/09/08 00:34:31;;;;;;;;;2.00;2.00;;;;;19.45;59.55;100379.91;5048096;28;66722;-52
2022/09/08 00:36:58;;;;;;;;;0.50;0.50;;;;;19.45;59.66;100376.41;5062772;27;45496;-52
2022/09/08 00:39:23;;;;;;;;;3.25;1.00;;;;;19.47;59.94;100378.00;5076845;27;45517;-53
2022/09/08 00:41:50;;;;;;;;;2.00;2.00;;;;;19.50;59.50;100375.13;5080369;27;45418;-52
2022/09/08 00:44:53;;;;;;;;;1.75;1.00;;;;;19.54;59.79;100375.75;5075485;27;45181;-53
2022/09/08 00:47:33;;;;;;;;;2.00;2.00;;;;;19.57;59.26;100375.56;5075467;27;45223;-52
2022/09/08 00:50:05;;;;;;;;;4.00;3.00;;;;;19.56;59.32;100373.84;5060124;28;47088;-50
2022/09/08 00:52:39;;;;;;;;;1.00;1.00;;;;;19.59;59.31;100375.44;5077211;27;46160;-54
2022/09/08 00:55:07;;;;;;;;;3.25;1.00;;;;;19.60;58.86;100372.69;5057912;28;45737;-52
2022/09/08 00:57:32;;;;;;;;;4.50;1.00;;;;;19.57;58.96;100372.06;5075824;27;45371;-53
2022/09/08 00:59:58;;;;;;;;;4.75;4.75;;;;;19.55;59.32;100372.16;5074103;27;45353;-50
2022/09/08 01:02:25;;;;;;;;;1.75;1.00;;;;;19.55;59.12;100374.81;5076892;27;50818;-52
2022/09/08 01:04:58;;;;;;;;;1.00;1.00;;;;;19.57;59.07;100370.25;5068783;27;45674;-47
2022/09/08 01:13:26;;;;;;;;;1.00;1.00;;;;;19.58;58.96;100371.09;5059279;28;45903;-50
2022/09/08 01:15:51;;;;;;;;;1.75;0.50;;;;;19.56;58.90;100373.00;5052717;27;66263;-49
2022/09/08 01:18:16;;;;;;;;;1.25;1.00;;;;;19.54;59.19;100371.28;5079419;27;45201;-52
2022/09/08 01:20:50;;;;;;;;;1.00;1.00;;;;;19.56;59.09;100373.84;5054994;28;63016;-47
2022/09/08 01:23:40;;;;;;;;;2.00;1.00;;;;;19.57;58.86;100372.91;5056434;28;46300;-53
2022/09/08 01:26:28;;;;;;;;;1.00;1.00;;;;;19.57;59.03;100374.72;5065550;27;45251;-51
2022/09/08 01:28:55;;;;;;;;;4.00;1.00;;;;;19.60;58.95;100380.66;5045759;27;45257;-48
2022/09/08 01:31:21;;;;;;;;;1.00;1.00;;;;;19.60;59.17;100385.97;5050079;28;45462;-50
2022/09/08 01:33:47;;;;;;;;;1.75;0.50;;;;;19.61;59.29;100386.81;5072553;27;45541;-51
2022/09/08 01:36:15;;;;;;;;;1.00;1.00;;;;;19.62;59.32;100388.47;5072100;27;45743;-51
2022/09/08 01:38:41;;;;;;;;;2.00;1.00;;;;;19.62;59.19;100394.66;5075097;27;45261;-49
2022/09/08 01:41:07;;;;;;;;;2.00;1.00;;;;;19.64;59.34;100399.88;5046359;28;45306;-52
2022/09/08 01:43:32;;;;;;;;;2.25;0.00;;;;;19.63;59.00;100393.69;5066307;27;45502;-52
2022/09/08 01:45:58;;;;;;;;;0.00;0.00;;;;;19.63;58.93;100393.69;5077506;27;64556;-52
2022/09/08 01:48:24;;;;;;;;;5.00;0.00;;;;;19.65;59.19;100397.09;5059056;28;45422;-51
2022/09/08 01:50:50;;;;;;;;;1.25;0.75;;;;;19.66;59.07;100397.94;5050220;28;45430;-51
2022/09/08 01:53:16;;;;;;;;;0.50;0.50;;;;;19.65;59.08;100391.78;5078693;27;45395;-49
2022/09/08 01:55:43;;;;;;;;;3.75;1.25;;;;;19.65;58.33;100396.25;5079268;27;45750;-51
2022/09/08 01:58:09;;;;;;;;;2.00;0.25;;;;;19.62;58.72;100407.94;5065907;28;45603;-51
2022/09/08 02:00:34;;;;;;;;;3.75;0.00;;;;;19.58;58.93;100409.09;5077518;27;45240;-53
2022/09/08 02:03:00;;;;;;;;;1.75;0.25;;;;;19.56;58.98;100413.66;5077140;27;46136;-50
2022/09/08 02:05:25;;;;;;;;;2.00;1.00;;;;;19.56;58.77;100411.00;5070284;27;45586;-52
2022/09/08 02:07:51;;;;;;;;;1.75;1.00;;;;;19.57;58.69;100415.38;5061059;28;48528;-51
2022/09/08 02:10:16;;;;;;;;;2.25;1.75;;;;;19.60;59.12;100407.19;5078988;27;47495;-51
2022/09/08 02:12:41;;;;;;;;;1.50;1.00;;;;;19.61;59.06;100408.88;5075437;27;69274;-52
2022/09/08 02:15:07;;;;;;;;;2.50;1.25;;;;;19.62;59.34;100410.59;5069567;27;70808;-52
2022/09/08 02:17:33;;;;;;;;;1.25;1.25;;;;;19.66;59.13;100408.56;5082214;27;45490;-51
2022/09/08 02:19:58;;;;;;;;;1.00;1.00;;;;;19.64;58.78;100416.63;5073983;27;69469;-52
2022/09/08 02:22:25;;;;;;;;;0.25;0.25;;;;;19.64;58.93;100410.50;5060324;28;72971;-56
2022/09/08 02:24:51;;;;;;;;;1.00;1.00;;;;;19.62;59.14;100405.28;5079318;27;45633;-52
2022/09/08 02:27:16;;;;;;;;;2.75;1.00;;;;;19.61;59.29;100400.91;5075315;28;45603;-52
2022/09/08 02:29:41;;;;;;;;;2.00;1.00;;;;;19.64;59.37;100405.19;5073983;27;70509;-52
2022/09/08 02:32:07;;;;;;;;;3.50;1.00;;;;;19.65;59.11;100404.22;5085223;27;48439;-50
2022/09/08 02:34:32;;;;;;;;;1.00;1.00;;;;;19.65;59.09;100399.72;5083978;27;45356;-53
2022/09/08 02:36:58;;;;;;;;;1.00;1.00;;;;;19.65;59.13;100397.09;5082081;27;45366;-53
2022/09/08 02:39:23;;;;;;;;;0.50;0.50;;;;;19.65;59.24;100389.13;5079602;27;61795;-53
2022/09/08 02:41:49;;;;;;;;;3.00;1.00;;;;;19.66;59.06;100393.47;5076741;27;46226;-51
2022/09/08 02:44:14;;;;;;;;;1.00;0.75;;;;;19.64;59.01;100384.78;5085106;27;45201;-52
2022/09/08 02:46:41;;;;;;;;;1.00;1.00;;;;;19.63;59.20;100387.53;5076123;27;45228;-50
2022/09/08 02:49:10;;;;;;;;;2.00;2.00;;;;;19.61;58.81;100384.16;5080823;27;45324;-50
2022/09/08 02:51:35;;;;;;;;;2.75;1.25;;;;;19.61;58.98;100384.16;5076685;27;46414;-53
2022/09/08 02:54:01;;;;;;;;;0.25;0.25;;;;;19.60;59.17;100387.75;5072721;27;45391;-52
2022/09/08 02:56:26;;;;;;;;;3.00;1.00;;;;;19.57;59.31;100380.03;5079361;27;62803;-53
2022/09/08 02:58:53;;;;;;;;;1.00;1.00;;;;;19.55;59.22;100369.50;5077110;27;45644;-52
2022/09/08 03:01:18;;;;;;;;;0.50;0.50;;;;;19.53;59.02;100368.78;5076305;27;46038;-50
2022/09/08 03:03:43;;;;;;;;;1.00;1.00;;;;;19.52;59.38;100364.41;5073325;27;45700;-53
2022/09/08 03:06:09;;;;;;;;;1.00;1.00;;;;;19.51;59.17;100365.34;5065226;27;63226;-55
2022/09/08 03:08:35;;;;;;;;;2.25;1.00;;;;;19.49;59.16;100361.97;5077854;27;45185;-53
2022/09/08 03:11:01;;;;;;;;;3.50;1.00;;;;;19.47;59.00;100361.22;5052037;28;45895;-53
2022/09/08 03:13:26;;;;;;;;;0.00;0.00;;;;;19.47;59.35;100364.72;5068498;27;45926;-55
2022/09/08 03:15:52;;;;;;;;;1.00;1.00;;;;;19.48;59.42;100365.59;5047831;28;45463;-53
2022/09/08 03:18:17;;;;;;;;;1.25;1.00;;;;;19.48;59.25;100357.63;5068752;27;45538;-52
2022/09/08 03:20:44;;;;;;;;;1.75;1.00;;;;;19.47;59.16;100355.91;5076696;27;45352;-50
2022/09/08 03:23:20;;;;;;;;;1.50;1.00;;;;;19.45;58.73;100358.69;5053751;28;45784;-54
2022/09/08 03:25:46;;;;;;;;;3.00;1.50;;;;;19.43;59.11;100359.75;5070867;27;45291;-54
2022/09/08 03:28:19;;;;;;;;;2.00;1.00;;;;;19.39;59.66;100359.13;5067209;27;45591;-52
2022/09/08 03:30:44;;;;;;;;;2.00;1.00;;;;;19.38;59.29;100352.09;5050372;27;45419;-54
2022/09/08 03:33:09;;;;;;;;;3.00;1.00;;;;;19.37;59.09;100347.78;5065832;27;45289;-51
2022/09/08 03:35:35;;;;;;;;;4.50;2.00;;;;;19.34;59.51;100350.63;5073486;27;66328;-52
2022/09/08 03:38:00;;;;;;;;;2.00;0.75;;;;;19.31;59.16;100342.88;5055075;27;45458;-51
2022/09/08 03:40:26;;;;;;;;;1.00;0.50;;;;;19.28;59.43;100340.44;5080182;27;45627;-53
2022/09/08 03:42:52;;;;;;;;;1.00;1.00;;;;;19.27;59.79;100341.41;5078427;27;45256;-52
2022/09/08 03:45:18;;;;;;;;;1.00;0.00;;;;;19.27;59.54;100350.22;5079156;28;65067;-52
2022/09/08 03:47:44;;;;;;;;;2.00;0.00;;;;;19.28;59.83;100340.44;5075701;27;45197;-52
2022/09/08 03:50:11;;;;;;;;;2.25;1.00;;;;;19.28;59.97;100346.63;5079788;27;46066;-53
2022/09/08 03:52:36;;;;;;;;;2.25;2.00;;;;;19.28;59.63;100345.75;5078721;27;45540;-52
2022/09/08 03:55:02;;;;;;;;;1.25;1.00;;;;;19.29;59.79;100350.94;5053136;28;45386;-50
2022/09/08 03:57:28;;;;;;;;;3.00;3.00;;;;;19.22;59.76;100340.88;5052973;28;45385;-50
2022/09/08 03:59:56;;;;;;;;;2.00;2.00;;;;;19.21;59.89;100352.44;5059581;28;45602;-52
2022/09/08 04:02:21;;;;;;;;;3.50;2.00;;;;;19.20;59.78;100340.97;5047191;27;45873;-50
2022/09/08 04:04:51;;;;;;;;;2.00;2.00;;;;;19.22;59.96;100346.19;5077247;27;62732;-53
2022/09/08 04:07:18;;;;;;;;;3.00;1.00;;;;;19.23;60.21;100346.06;5073568;27;45564;-52
2022/09/08 04:09:44;;;;;;;;;5.00;3.00;;;;;19.24;60.02;100344.25;5047112;27;45378;-53
2022/09/08 04:12:09;;;;;;;;;2.00;1.00;;;;;19.22;59.43;100339.06;5073085;27;73018;-52
2022/09/08 04:14:35;;;;;;;;;2.50;1.50;;;;;19.19;59.74;100349.88;5078202;27;45441;-51
2022/09/08 04:17:00;;;;;;;;;7.50;1.00;;;;;19.14;59.97;100352.88;5069928;27;72028;-51
2022/09/08 04:19:26;;;;;;;;;5.25;2.25;;;;;19.15;60.18;100346.59;5057350;28;46977;-54
2022/09/08 04:21:51;;;;;;;;;4.00;2.00;;;;;19.17;60.04;100349.13;5074715;27;45273;-50
2022/09/08 04:24:18;;;;;;;;;2.00;2.00;;;;;19.19;59.92;100352.53;5072918;27;69278;-52
2022/09/08 04:26:43;;;;;;;;;2.00;2.00;;;;;19.22;60.16;100341.72;5076162;27;45566;-50
2022/09/08 04:29:08;;;;;;;;;4.50;2.00;;;;;19.24;59.70;100345.09;5072983;27;75635;-52
2022/09/08 04:31:35;;;;;;;;;3.00;1.00;;;;;19.25;59.76;100332.72;5074776;27;45388;-53
2022/09/08 04:34:01;;;;;;;;;5.00;2.00;;;;;19.26;59.86;100334.38;5064509;27;45325;-53
2022/09/08 04:36:27;;;;;;;;;1.00;1.00;;;;;19.27;60.10;100330.78;5079194;27;45387;-53
2022/09/08 04:38:56;;;;;;;;;3.00;1.00;;;;;19.27;59.73;100336.09;5070261;28;46015;-50
2022/09/08 04:41:22;;;;;;;;;2.00;2.00;;;;;19.27;59.82;100334.28;5072012;28;45418;-50
2022/09/08 04:43:47;;;;;;;;;3.25;2.00;;;;;19.28;59.60;100325.38;5076481;27;45315;-53
2022/09/08 04:46:15;;;;;;;;;2.50;2.50;;;;;19.27;59.79;100330.78;5076858;27;45203;-52
2022/09/08 04:48:42;;;;;;;;;3.00;1.50;;;;;19.27;59.93;100333.44;5066937;27;45476;-52
2022/09/08 04:51:10;;;;;;;;;1.75;1.00;;;;;19.27;59.81;100333.44;5079611;27;45474;-52
2022/09/08 04:53:36;;;;;;;;;2.00;1.25;;;;;19.31;59.86;100332.25;5058330;28;45366;-52
2022/09/08 04:56:05;;;;;;;;;3.00;1.50;;;;;19.27;59.58;100333.44;5073045;27;45363;-52
2022/09/08 04:58:33;;;;;;;;;3.75;1.25;;;;;19.25;60.08;100332.72;5076966;28;46126;-47
2022/09/08 05:01:06;;;;;;;;;2.00;2.00;;;;;19.24;60.01;100326.53;5083102;27;45723;-53
2022/09/08 05:03:32;;;;;;;;;3.00;2.00;;;;;19.22;60.14;100336.41;5078005;27;45594;-51
2022/09/08 05:06:03;;;;;;;;;1.00;1.00;;;;;19.19;60.12;100328.66;5057375;28;45391;-52
2022/09/08 05:08:29;;;;;;;;;2.00;2.00;;;;;19.17;59.81;100325.28;5075433;27;47285;-53
2022/09/08 05:10:54;;;;;;;;;2.25;2.25;;;;;19.18;60.11;100323.50;5065433;27;67699;-51
2022/09/08 05:13:20;;;;;;;;;3.50;1.00;;;;;19.22;60.34;100341.72;5069492;28;45474;-51
2022/09/08 05:15:45;;;;;;;;;5.25;4.25;;;;;19.22;59.91;100339.06;5076849;28;67246;-48
2022/09/08 05:18:10;;;;;;;;;3.00;2.00;;;;;19.25;59.97;100345.97;5079488;27;45226;-52
2022/09/08 05:20:36;;;;;;;;;4.00;2.00;;;;;19.27;59.80;100338.75;5072985;27;45268;-49
2022/09/08 05:23:01;;;;;;;;;3.50;2.00;;;;;19.27;59.76;100344.91;5070855;27;59697;-52
2022/09/08 05:25:27;;;;;;;;;2.75;1.00;;;;;19.25;59.59;100349.47;5075902;27;45197;-50
2022/09/08 05:27:52;;;;;;;;;1.25;1.25;;;;;19.25;60.04;100346.81;5073035;27;59342;-50
2022/09/08 05:30:18;;;;;;;;;3.00;1.00;;;;;19.27;59.96;100346.72;5071833;28;67323;-49
2022/09/08 05:32:44;;;;;;;;;2.00;2.00;;;;;19.27;59.97;100336.94;5078950;27;53243;-52
2022/09/08 05:35:09;;;;;;;;;5.00;3.00;;;;;19.26;59.83;100343.19;5072686;27;45488;-51
2022/09/08 05:37:34;;;;;;;;;8.25;6.75;;;;;19.25;59.83;100344.16;5064293;27;45340;-50
2022/09/08 05:40:00;;;;;;;;;4.00;4.00;;;;;19.24;59.85;100347.75;5072380;27;45375;-50
2022/09/08 05:42:25;;;;;;;;;4.00;3.25;;;;;19.27;59.91;100349.38;5069282;27;45328;-48
2022/09/08 05:44:51;;;;;;;;;6.25;4.00;;;;;19.29;59.96;100353.59;5075040;27;51358;-53
2022/09/08 05:47:17;;;;;;;;;2.50;2.00;;;;;19.31;60.15;100342.88;5061291;27;45973;-51
2022/09/08 05:49:42;;;;;;;;;2.00;2.00;;;;;19.32;59.76;100345.44;5044937;27;45228;-48
2022/09/08 05:52:07;;;;;;;;;3.25;2.75;;;;;19.31;59.99;100345.53;5060505;27;61340;-50
2022/09/08 05:54:33;;;;;;;;;3.25;3.25;;;;;19.32;59.88;100349.91;5065852;28;67686;-48
2022/09/08 05:56:58;;;;;;;;;2.00;2.00;;;;;19.33;59.72;100346.28;5076778;27;68081;-52
2022/09/08 05:59:24;;;;;;;;;2.00;2.00;;;;;19.33;59.79;100343.63;5053998;28;45740;-52
2022/09/08 06:01:49;;;;;;;;;2.25;2.25;;;;;19.34;59.92;100346.16;5059338;27;45347;-47
2022/09/08 06:04:15;;;;;;;;;4.75;2.00;;;;;19.34;59.88;100346.16;5076100;27;45226;-51
2022/09/08 06:06:40;;;;;;;;;3.25;3.00;;;;;19.37;59.52;100353.09;5079151;28;45229;-52
2022/09/08 06:09:07;;;;;;;;;5.00;3.50;;;;;19.37;59.76;100352.22;5077879;28;56821;-50
2022/09/08 06:11:33;;;;;;;;;6.00;4.00;;;;;19.35;59.45;100354.97;5072977;28;45404;-54
2022/09/08 06:13:59;;;;;;;;;2.00;2.00;;;;;19.31;59.74;100351.69;5060354;28;46137;-50
2022/09/08 06:16:26;;;;;;;;;3.00;2.75;;;;;19.33;60.19;100343.63;5037138;27;47911;-51
2022/09/08 06:18:51;;;;;;;;;5.75;3.00;;;;;19.33;59.97;100351.56;5047869;28;45451;-52
2022/09/08 06:21:19;;;;;;;;;2.00;2.00;;;;;19.34;59.80;100348.81;5042760;28;45485;-52
2022/09/08 06:23:49;;;;;;;;;3.00;2.00;;;;;19.37;59.51;100355.72;5055409;28;45413;-52
2022/09/08 06:26:15;;;;;;;;;8.25;3.75;;;;;19.39;59.54;100356.47;5060222;28;45551;-52
2022/09/08 06:28:47;;;;;;;;;6.00;4.00;;;;;19.42;59.62;100356.22;5072862;27;45264;-52
2022/09/08 06:31:14;;;;;;;;;3.00;2.50;;;;;19.46;59.44;100354.22;5040371;28;45393;-52
2022/09/08 06:33:41;;;;;;;;;4.00;2.50;;;;;19.49;59.35;100354.00;5050698;27;45523;-48
2022/09/08 06:36:17;;;;;;;;;5.00;2.00;;;;;19.52;59.64;100345.84;5055350;28;47245;-52
2022/09/08 06:38:54;;;;;;;;;4.75;2.00;;;;;19.53;59.17;100345.72;5044979;28;45268;-52
2022/09/08 06:41:25;;;;;;;;;4.50;3.00;;;;;19.53;59.18;100345.72;5045387;28;45447;-53
2022/09/08 06:44:07;;;;;;;;;8.75;6.50;;;;;19.57;59.09;100350.81;5072117;27;45403;-53
2022/09/08 06:46:37;;;;;;;;;4.25;3.50;;;;;19.63;59.39;100351.22;5071766;28;45503;-53
2022/09/08 06:49:02;;;;;;;;;4.50;4.50;;;;;19.66;59.01;100343.03;5067993;27;45617;-51
2022/09/08 06:51:42;;;;;;;;;9.25;4.00;;;;;19.69;58.80;100345.50;5079156;27;45395;-51
2022/09/08 06:54:10;;;;;;;;;14.50;7.25;;;;;19.69;58.79;100337.53;5074887;28;45648;-54
2022/09/08 06:57:01;;;;;;;;;4.25;4.00;;;;;19.75;58.66;100340.72;5064508;28;45996;-50
2022/09/08 06:59:50;;;;;;;;;5.50;3.50;;;;;19.76;58.46;100345.06;5084499;27;45387;-50
2022/09/08 07:02:44;;;;;;;;;6.00;4.75;;;;;19.80;58.36;100344.75;5056864;28;45657;-52
2022/09/08 07:05:37;;;;;;;;;12.00;5.00;;;;;19.84;58.41;100351.53;5076202;27;45542;-50
2022/09/08 07:08:24;;;;;;;;;6.00;3.25;;;;;19.86;58.17;100348.75;5076922;27;46440;-52
2022/09/08 07:11:08;;;;;;;;;8.75;4.00;;;;;19.87;58.65;100353.13;5063224;28;45418;-51
2022/09/08 07:13:33;;;;;;;;;8.25;4.00;;;;;19.90;58.86;100355.53;5081898;27;45340;-53
2022/09/08 07:16:06;;;;;;;;;5.00;3.67;;;;;19.91;58.72;100350.13;5068646;28;45376;-50
2022/09/08 07:18:43;;;;;;;;;8.00;4.00;;;;;19.92;58.84;100351.00;5059317;28;45315;-53
2022/09/08 07:21:39;;;;;;;;;6.00;3.00;;;;;19.95;58.17;100353.41;5068925;27;45830;-51
2022/09/08 07:24:10;;;;;;;;;10.25;6.00;;;;;19.96;58.28;100349.78;5081351;27;45315;-53
2022/09/08 07:26:47;;;;;;;;;5.00;4.25;;;;;19.96;58.21;100344.47;5054363;28;45316;-50
2022/09/08 07:29:20;;;;;;;;;4.25;3.25;;;;;19.94;58.17;100338.44;5064798;27;46179;-50
2022/09/08 07:31:49;;;;;;;;;6.25;3.00;;;;;19.95;58.17;100347.25;5057888;28;45490;-52
2022/09/08 07:34:21;;;;;;;;;5.75;4.00;;;;;19.97;58.01;100335.53;5078280;28;45297;-52
2022/09/08 07:37:00;;;;;;;;;5.25;4.00;;;;;20.02;57.76;100345.84;5072792;27;45446;-53
2022/09/08 07:39:50;;;;;;;;;9.75;5.00;;;;;20.07;58.33;100347.19;5057157;28;45569;-53
2022/09/08 07:42:16;;;;;;;;;18.00;15.25;;;;;20.13;58.30;100347.72;5074529;27;45165;-54
2022/09/08 07:44:42;;;;;;;;;8.50;7.50;;;;;20.16;57.84;100348.34;5060779;28;45458;-52
2022/09/08 07:47:25;;;;;;;;;8.00;6.00;;;;;20.20;57.58;100351.59;5068019;27;45596;-52
2022/09/08 07:50:14;;;;;;;;;5.50;4.25;;;;;20.19;57.75;100350.78;5070890;28;45410;-50
2022/09/08 07:52:50;;;;;;;;;8.00;3.50;;;;;20.22;57.50;100365.63;5073260;28;45673;-51
2022/09/08 07:55:37;;;;;;;;;24.50;10.75;;;;;20.23;57.50;100357.53;5069077;28;45374;-51
2022/09/08 07:58:30;;;;;;;;;15.75;9.25;;;;;20.22;57.41;100353.22;5061981;28;45521;-50
2022/09/08 08:01:14;;;;;;;;;8.25;4.25;;;;;20.24;57.68;100356.59;5053975;27;47183;-52
2022/09/08 08:03:45;;;;;;;;;6.75;4.00;;;;;20.25;57.62;100352.97;5065147;27;45356;-53
2022/09/08 08:06:29;;;;;;;;;4.50;4.00;;;;;20.26;57.30;100356.50;5064051;28;45273;-54
2022/09/08 08:09:16;;;;;;;;;11.50;6.00;;;;;20.21;57.32;100350.66;5048373;28;45438;-53
2022/09/08 08:11:53;;;;;;;;;6.25;5.00;;;;;20.25;57.12;100363.59;5081022;27;46126;-51
2022/09/08 08:14:26;;;;;;;;;12.75;11.00;;;;;20.27;57.70;100358.16;5051098;28;45697;-53
2022/09/08 08:17:21;;;;;;;;;3.75;3.00;;;;;20.30;57.22;100355.28;5062405;27;45474;-54
2022/09/08 08:19:58;;;;;;;;;7.00;4.00;;;;;20.32;56.86;100353.38;5055467;27;45293;-54
2022/09/08 08:22:23;;;;;;;;;6.25;3.75;;;;;20.35;56.73;100353.16;5070116;28;45443;-50
2022/09/08 08:25:05;;;;;;;;;9.67;7.00;;;;;20.40;57.22;100360.78;5080303;28;45248;-53
2022/09/08 08:27:52;;;;;;;;;5.00;3.75;;;;;20.41;56.98;100359.81;5054120;28;45313;-55
2022/09/08 08:30:22;;;;;;;;;3.50;3.00;;;;;20.43;56.81;100360.53;5045384;28;45304;-51
2022/09/08 08:33:02;;;;;;;;;7.00;4.00;;;;;20.42;56.38;100365.00;5078337;27;45427;-52
2022/09/08 08:35:36;;;;;;;;;4.50;2.25;;;;;20.39;56.40;100365.22;5044192;28;45400;-50
2022/09/08 08:38:02;;;;;;;;;5.25;3.00;;;;;20.45;56.37;100367.44;5067482;28;45244;-53
2022/09/08 08:40:33;;;;;;;;;6.25;3.75;;;;;20.49;56.13;100366.25;5042231;28;45495;-51
2022/09/08 08:43:24;;;;;;;;;4.00;2.25;;;;;20.55;55.71;100364.09;5075238;27;47182;-54
2022/09/08 08:46:02;;;;;;;;;8.50;5.00;;;;;20.60;55.83;100365.44;5050846;28;45356;-54
2022/09/08 08:48:48;;;;;;;;;8.50;5.00;;;;;20.67;56.02;100365.88;5054370;28;45184;-54
2022/09/08 08:51:25;;;;;;;;;4.25;4.25;;;;;20.70;55.47;100363.00;5069318;28;45425;-48
2022/09/08 08:54:02;;;;;;;;;4.25;3.00;;;;;20.72;55.79;100366.38;5065325;28;46290;-53
2022/09/08 08:56:36;;;;;;;;;5.00;3.00;;;;;20.78;55.19;100365.91;5047030;28;45541;-52
2022/09/08 08:59:23;;;;;;;;;6.25;4.00;;;;;20.81;55.24;100375.47;5056943;28;45492;-53
2022/09/08 09:02:15;;;;;;;;;9.00;4.00;;;;;20.83;55.03;100378.84;5067730;28;45638;-54
2022/09/08 09:04:55;;;;;;;;;5.75;3.25;;;;;20.89;55.34;100377.53;5071194;28;45260;-52
2022/09/08 09:07:26;;;;;;;;;7.25;4.00;;;;;20.93;55.04;100377.19;5064126;27;45937;-51
2022/09/08 09:09:58;;;;;;;;;9.50;5.00;;;;;21.00;55.13;100389.06;5079386;27;45316;-51
2022/09/08 09:13:00;;;;;;;;;4.00;2.50;;;;;21.05;54.84;100388.69;5073304;27;45429;-52
2022/09/08 09:15:50;;;;;;;;;4.00;3.75;;;;;21.08;54.73;100375.16;5072928;27;46238;-51
2022/09/08 09:18:24;;;;;;;;;4.50;3.00;;;;;21.12;54.63;100383.75;5068210;27;45784;-53
2022/09/08 09:21:06;;;;;;;;;6.75;3.75;;;;;21.13;54.64;100386.31;5079878;27;45485;-52
2022/09/08 09:23:40;;;;;;;;;6.00;4.50;;;;;21.12;54.27;100386.41;5053829;28;45399;-49
2022/09/08 09:26:16;;;;;;;;;3.25;2.75;;;;;21.10;54.58;100386.53;5051878;28;46924;-49
2022/09/08 09:29:09;;;;;;;;;6.75;3.25;;;;;21.12;54.66;100384.59;5077772;27;45734;-52
2022/09/08 09:31:53;;;;;;;;;6.75;4.00;;;;;21.18;54.42;100396.59;5047377;28;45583;-50
2022/09/08 09:34:40;;;;;;;;;2.00;2.00;;;;;21.20;54.15;100397.34;5074978;27;45462;-51
2022/09/08 09:37:24;;;;;;;;;5.25;3.25;;;;;21.23;54.23;100389.97;5068046;28;45315;-55
2022/09/08 09:40:13;;;;;;;;;4.50;3.00;;;;;21.27;54.43;100393.22;5068240;27;45645;-52
2022/09/08 09:42:49;;;;;;;;;3.50;3.50;;;;;21.30;54.09;100379.69;5057576;28;45459;-53
2022/09/08 09:45:38;;;;;;;;;6.75;5.00;;;;;21.37;54.37;100388.03;5071623;28;45396;-51
2022/09/08 09:48:17;;;;;;;;;6.00;3.00;;;;;21.48;53.93;100392.53;5069771;28;46344;-52
2022/09/08 09:50:51;;;;;;;;;7.50;6.00;;;;;21.53;53.86;100385.91;5066536;27;45314;-52
2022/09/08 09:53:29;;;;;;;;;7.50;5.00;;;;;21.56;54.02;100384.81;5061728;28;45386;-50
2022/09/08 09:56:00;;;;;;;;;7.00;4.50;;;;;21.58;53.84;100373.06;5060935;28;45244;-49
2022/09/08 09:58:44;;;;;;;;;4.75;3.25;;;;;21.58;53.53;100378.41;5072475;28;45397;-49
2022/09/08 10:01:22;;;;;;;;;7.75;6.00;;;;;21.61;54.06;100386.13;5063929;28;45615;-48
2022/09/08 10:04:12;;;;;;;;;8.00;4.50;;;;;21.61;53.92;100382.63;5076475;28;45430;-53
2022/09/08 10:06:43;;;;;;;;;5.00;4.00;;;;;21.61;53.36;100385.28;5073147;27;45316;-54
2022/09/08 10:09:18;;;;;;;;;5.00;3.00;;;;;21.61;53.66;100383.47;5067417;28;45343;-54
2022/09/08 10:12:11;;;;;;;;;6.00;3.00;;;;;21.63;53.64;100379.84;5040428;28;45574;-54
2022/09/08 10:15:02;;;;;;;;;3.00;3.00;;;;;21.65;53.21;100369.91;5064676;28;45402;-54
2022/09/08 10:17:40;;;;;;;;;6.00;3.25;;;;;21.67;53.61;100370.63;5061399;28;45534;-53
2022/09/08 10:20:29;;;;;;;;;5.00;2.50;;;;;21.68;53.72;100361.69;5079856;27;46177;-55
2022/09/08 10:23:47;;;;;;;;;6.25;4.00;;;;;21.67;53.59;100366.16;5067750;28;45280;-53
2022/09/08 10:26:47;;;;;;;;;6.25;4.50;;;;;21.69;53.97;100356.25;4996582;28;45388;-53
2022/09/08 10:29:31;;;;;;;;;4.50;3.75;;;;;21.76;54.15;100354.78;5076513;27;45225;-54
2022/09/08 10:32:18;;;;;;;;;4.25;3.00;;;;;21.79;54.41;100354.50;5076782;27;46236;-53
2022/09/08 10:35:17;;;;;;;;;6.25;3.00;;;;;21.85;54.83;100344.34;5074993;27;45813;-51
2022/09/08 10:38:11;;;;;;;;;8.25;8.00;;;;;21.93;54.13;100345.41;5070104;27;45584;-54
2022/09/08 10:40:59;;;;;;;;;6.25;5.75;;;;;21.99;54.46;100350.25;5051277;27;45465;-52
2022/09/08 10:43:36;;;;;;;;;11.25;7.00;;;;;22.02;53.54;100342.97;5057455;28;45431;-53
2022/09/08 10:46:29;;;;;;;;;5.00;5.00;;;;;22.02;53.54;100345.66;5078213;27;45346;-53
2022/09/08 10:49:15;;;;;;;;;9.00;6.25;;;;;22.02;54.02;100350.97;5074202;27;45403;-54
2022/09/08 10:51:44;;;;;;;;;7.00;4.00;;;;;22.06;54.25;100353.28;5055372;28;45569;-50
2022/09/08 10:54:17;;;;;;;;;5.50;4.00;;;;;22.05;54.22;100348.91;5081999;27;45256;-53
2022/09/08 10:56:45;;;;;;;;;5.50;4.00;;;;;22.03;54.08;100345.53;5082217;27;45630;-51
2022/09/08 10:59:42;;;;;;;;;11.00;9.50;;;;;22.04;53.77;100343.69;5078843;27;45371;-53
2022/09/08 11:02:22;;;;;;;;;6.75;5.00;;;;;22.07;53.73;100332.81;5045945;27;45502;-54
2022/09/08 11:05:24;;;;;;;;;6.75;4.00;;;;;22.08;53.60;100331.81;5036860;28;47002;-54
2022/09/08 11:08:01;;;;;;;;;6.50;4.50;;;;;22.10;53.47;100336.06;5075565;27;45349;-53
2022/09/08 11:10:58;;;;;;;;;4.50;1.50;;;;;22.11;52.96;100345.72;5080486;27;45480;-55
2022/09/08 11:13:44;;;;;;;;;10.75;6.00;;;;;22.13;52.29;100338.47;5043481;28;45460;-54
2022/09/08 11:16:38;;;;;;;;;6.00;6.00;;;;;22.10;51.61;100346.72;5067284;27;46183;-54
2022/09/08 11:19:37;;;;;;;;;2.75;1.00;;;;;22.09;52.02;100339.69;5058138;28;45235;-54
2022/09/08 11:22:08;;;;;;;;;4.75;3.75;;;;;22.10;52.00;100338.72;5078167;27;45560;-54
2022/09/08 11:24:39;;;;;;;;;4.25;3.00;;;;;22.13;51.45;100340.28;5070604;27;45424;-53
2022/09/08 11:27:14;;;;;;;;;8.00;5.25;;;;;22.16;51.65;100321.38;5056145;28;46472;-49
2022/09/08 11:29:40;;;;;;;;;4.00;4.00;;;;;22.28;51.44;100330.22;5079959;27;45339;-52
2022/09/08 11:32:20;;;;;;;;;3.75;3.00;;;;;22.35;51.89;100334.06;5058675;28;45351;-50
2022/09/08 11:35:14;;;;;;;;;3.00;1.00;;;;;22.37;50.39;100337.44;5050355;28;45470;-53
2022/09/08 11:38:01;;;;;;;;;3.00;3.00;;;;;22.34;50.40;100341.19;5048037;28;47439;-52
2022/09/08 11:40:55;;;;;;;;;6.75;4.00;;;;;22.39;50.43;100337.31;5053166;28;45394;-54
2022/09/08 11:43:42;;;;;;;;;2.00;2.00;;;;;22.44;50.30;100348.47;5047007;28;45483;-52
2022/09/08 11:46:27;;;;;;;;;7.50;4.00;;;;;22.49;49.50;100341.75;5050804;28;45337;-53
2022/09/08 11:49:07;;;;;;;;;4.50;3.00;;;;;22.47;49.40;100341.03;5059466;28;46195;-53
2022/09/08 11:51:39;;;;;;;;;7.75;2.75;;;;;22.48;49.68;100340.06;5052803;28;45646;-54
2022/09/08 11:54:20;;;;;;;;;3.00;1.00;;;;;22.48;48.99;100332.06;5060713;28;45384;-55
2022/09/08 11:56:54;;;;;;;;;2.50;1.00;;;;;22.47;49.27;100326.84;5059332;28;45272;-52